createdAt,value
2018-11-28T00:00:37.107Z,59.43
2018-11-28T00:01:37.076Z,59.24
2018-11-28T00:02:37.096Z,59.33
2018-11-28T00:03:37.098Z,59.33
2018-11-28T00:04:37.094Z,59.14
2018-11-28T00:05:37.134Z,59.14
2018-11-28T00:06:37.136Z,59.24
2018-11-28T00:07:37.095Z,59.43
2018-11-28T00:08:37.120Z,59.91
2018-11-28T00:09:37.112Z,60.00
2018-11-28T00:10:37.104Z,59.81
2018-11-28T00:11:37.126Z,59.24
2018-11-28T00:12:37.123Z,60.00
2018-11-28T00:13:37.162Z,59.91
2018-11-28T00:14:37.172Z,59.52
2018-11-28T00:15:37.132Z,59.33
2018-11-28T00:16:37.139Z,59.52
2018-11-28T00:17:37.125Z,59.33
2018-11-28T00:18:37.154Z,58.86
2018-11-28T00:19:37.275Z,59.52
2018-11-28T00:20:37.181Z,59.52
2018-11-28T00:21:37.179Z,59.43
2018-11-28T00:22:37.180Z,60.10
2018-11-28T00:23:37.165Z,59.81
2018-11-28T00:24:37.168Z,59.91
2018-11-28T00:25:37.197Z,59.91
2018-11-28T00:26:37.160Z,59.62
2018-11-28T00:27:37.218Z,59.62
2018-11-28T00:28:37.170Z,59.52
2018-11-28T00:29:37.195Z,59.91
2018-11-28T00:30:37.236Z,59.43
2018-11-28T00:31:37.185Z,59.43
2018-11-28T00:32:37.179Z,59.91
2018-11-28T00:33:37.251Z,60.47
2018-11-28T00:34:37.220Z,60.47
2018-11-28T00:35:37.259Z,61.04
2018-11-28T00:36:37.264Z,60.57
2018-11-28T00:37:37.236Z,60.28
2018-11-28T00:38:37.200Z,60.28
2018-11-28T00:39:37.245Z,60.28
2018-11-28T00:40:37.207Z,60.10
2018-11-28T00:41:37.305Z,60.28
2018-11-28T00:42:37.221Z,60.28
2018-11-28T00:43:37.230Z,60.66
2018-11-28T00:44:37.458Z,61.14
2018-11-28T00:45:37.247Z,60.57
2018-11-28T00:46:37.302Z,60.44
2018-11-28T00:47:37.231Z,60.76
2018-11-28T00:48:37.233Z,60.82
2018-11-28T00:49:37.264Z,60.92
2018-11-28T00:50:37.240Z,61.14
2018-11-28T00:51:37.300Z,61.61
2018-11-28T00:52:37.266Z,61.20
2018-11-28T00:53:37.275Z,61.33
2018-11-28T00:54:37.270Z,61.61
2018-11-28T00:55:37.306Z,61.80
2018-11-28T00:56:37.412Z,61.30
2018-11-28T00:57:37.265Z,61.39
2018-11-28T00:58:37.310Z,61.58
2018-11-28T00:59:37.284Z,61.87
2018-11-28T01:00:37.291Z,61.49
2018-11-28T01:01:37.286Z,61.49
2018-11-28T01:02:37.763Z,61.49
2018-11-28T01:03:37.373Z,61.77
2018-11-28T01:04:37.320Z,61.39
2018-11-28T01:05:37.333Z,61.49
2018-11-28T01:06:37.302Z,61.30
2018-11-28T01:07:37.360Z,61.49
2018-11-28T01:08:37.331Z,61.68
2018-11-28T01:09:37.365Z,61.68
2018-11-28T01:10:37.320Z,62.43
2018-11-28T01:11:37.332Z,62.34
2018-11-28T01:12:37.317Z,62.24
2018-11-28T01:13:37.341Z,62.05
2018-11-28T01:14:37.346Z,61.87
2018-11-28T01:15:37.345Z,62.34
2018-11-28T01:16:37.494Z,62.15
2018-11-28T01:17:37.367Z,62.82
2018-11-28T01:18:37.465Z,62.91
2018-11-28T01:19:37.356Z,63.48
2018-11-28T01:20:37.432Z,63.82
2018-11-28T01:21:37.354Z,63.73
2018-11-28T01:22:37.374Z,64.30
2018-11-28T01:23:37.394Z,64.11
2018-11-28T01:24:37.401Z,65.16
2018-11-28T01:25:37.375Z,64.97
2018-11-28T01:26:37.387Z,65.06
2018-11-28T01:27:37.425Z,65.34
2018-11-28T01:28:37.523Z,64.97
2018-11-28T01:29:37.401Z,65.16
2018-11-28T01:30:37.405Z,65.25
2018-11-28T01:31:37.384Z,65.28
2018-11-28T01:32:37.416Z,65.06
2018-11-28T01:33:37.403Z,65.25
2018-11-28T01:34:37.491Z,65.44
2018-11-28T01:35:37.400Z,64.78
2018-11-28T01:36:37.425Z,65.16
2018-11-28T01:37:37.432Z,65.06
2018-11-28T01:38:37.430Z,65.06
2018-11-28T01:39:37.444Z,65.63
2018-11-28T01:40:37.447Z,65.82
2018-11-28T01:41:37.426Z,65.91
2018-11-28T01:42:37.432Z,65.63
2018-11-28T01:43:37.423Z,66.39
2018-11-28T01:44:37.476Z,66.20
2018-11-28T01:45:37.446Z,65.82
2018-11-28T01:46:37.481Z,66.86
2018-11-28T01:47:37.480Z,67.05
2018-11-28T01:48:37.497Z,67.05
2018-11-28T01:49:37.465Z,67.24
2018-11-28T01:50:37.463Z,66.96
2018-11-28T01:51:37.530Z,67.24
2018-11-28T01:52:37.463Z,66.96
2018-11-28T01:53:37.490Z,66.58
2018-11-28T01:54:37.474Z,66.86
2018-11-28T01:55:37.517Z,66.86
2018-11-28T01:56:37.523Z,67.05
2018-11-28T01:57:37.517Z,67.14
2018-11-28T01:58:37.489Z,66.96
2018-11-28T01:59:37.521Z,66.58
2018-11-28T02:00:37.481Z,66.86
2018-11-28T02:01:37.490Z,66.96
2018-11-28T02:02:37.533Z,67.43
2018-11-28T02:03:37.554Z,67.33
2018-11-28T02:04:37.515Z,67.14
2018-11-28T02:05:37.562Z,67.43
2018-11-28T02:06:37.514Z,67.33
2018-11-28T02:07:37.505Z,67.43
2018-11-28T02:08:37.539Z,67.33
2018-11-28T02:09:37.546Z,68.00
2018-11-28T02:10:37.535Z,67.81
2018-11-28T02:11:37.537Z,67.90
2018-11-28T02:12:37.563Z,67.52
2018-11-28T02:13:37.573Z,67.52
2018-11-28T02:14:37.533Z,67.14
2018-11-28T02:15:37.546Z,67.43
2018-11-28T02:16:37.543Z,67.71
2018-11-28T02:17:37.555Z,68.00
2018-11-28T02:18:37.566Z,67.71
2018-11-28T02:19:37.589Z,67.81
2018-11-28T02:20:37.555Z,67.43
2018-11-28T02:21:37.566Z,68.19
2018-11-28T02:22:37.580Z,67.81
2018-11-28T02:23:37.579Z,68.19
2018-11-28T02:24:37.607Z,68.10
2018-11-28T02:25:37.575Z,68.29
2018-11-28T02:26:37.582Z,68.29
2018-11-28T02:27:37.573Z,68.29
2018-11-28T02:28:37.581Z,68.29
2018-11-28T02:29:37.635Z,67.90
2018-11-28T02:30:37.620Z,68.10
2018-11-28T02:31:37.594Z,67.43
2018-11-28T02:32:37.604Z,68.00
2018-11-28T02:33:37.601Z,68.10
2018-11-28T02:34:37.609Z,67.90
2018-11-28T02:35:37.650Z,67.90
2018-11-28T02:36:37.593Z,67.81
2018-11-28T02:37:37.611Z,67.24
2018-11-28T02:38:37.636Z,67.33
2018-11-28T02:39:37.619Z,67.62
2018-11-28T02:40:37.645Z,67.24
2018-11-28T02:41:37.625Z,67.43
2018-11-28T02:42:37.624Z,67.43
2018-11-28T02:43:37.621Z,67.62
2018-11-28T02:44:37.650Z,67.33
2018-11-28T02:45:37.743Z,67.24
2018-11-28T02:46:37.648Z,68.19
2018-11-28T02:47:37.645Z,67.24
2018-11-28T02:48:37.654Z,68.19
2018-11-28T02:49:37.689Z,68.00
2018-11-28T02:50:37.666Z,67.33
2018-11-28T02:51:38.002Z,67.81
2018-11-28T02:52:37.658Z,68.38
2018-11-28T02:53:37.669Z,67.90
2018-11-28T02:54:37.665Z,67.71
2018-11-28T02:55:37.663Z,68.10
2018-11-28T02:56:37.670Z,67.90
2018-11-28T02:57:37.685Z,68.29
2018-11-28T02:58:37.689Z,68.10
2018-11-28T02:59:37.706Z,67.90
2018-11-28T03:00:37.697Z,67.62
2018-11-28T03:01:37.689Z,67.33
2018-11-28T03:02:37.708Z,68.10
2018-11-28T03:03:37.767Z,68.38
2018-11-28T03:04:37.695Z,68.10
2018-11-28T03:05:37.782Z,68.19
2018-11-28T03:06:37.710Z,68.19
2018-11-28T03:07:37.758Z,67.90
2018-11-28T03:08:37.713Z,68.29
2018-11-28T03:09:37.737Z,68.29
2018-11-28T03:10:37.751Z,68.19
2018-11-28T03:11:37.717Z,68.10
2018-11-28T03:12:37.727Z,67.81
2018-11-28T03:13:37.719Z,68.29
2018-11-28T03:14:37.742Z,69.04
2018-11-28T03:15:37.753Z,68.48
2018-11-28T03:16:37.737Z,68.38
2018-11-28T03:17:37.725Z,69.01
2018-11-28T03:18:37.730Z,69.42
2018-11-28T03:19:37.738Z,69.20
2018-11-28T03:20:37.788Z,69.20
2018-11-28T03:21:37.735Z,69.29
2018-11-28T03:22:37.751Z,69.04
2018-11-28T03:23:37.747Z,68.82
2018-11-28T03:24:37.751Z,68.82
2018-11-28T03:25:37.804Z,68.63
2018-11-28T03:26:37.776Z,68.82
2018-11-28T03:27:37.778Z,68.82
2018-11-28T03:28:37.756Z,68.82
2018-11-28T03:29:37.759Z,69.29
2018-11-28T03:30:37.773Z,69.20
2018-11-28T03:31:37.824Z,69.10
2018-11-28T03:32:37.790Z,69.20
2018-11-28T03:33:37.783Z,69.01
2018-11-28T03:34:37.785Z,68.82
2018-11-28T03:35:37.795Z,69.67
2018-11-28T03:36:37.800Z,69.57
2018-11-28T03:37:37.825Z,69.57
2018-11-28T03:38:37.911Z,69.38
2018-11-28T03:39:37.787Z,69.38
2018-11-28T03:40:37.873Z,69.86
2018-11-28T03:41:37.798Z,70.05
2018-11-28T03:42:37.791Z,71.00
2018-11-28T03:43:38.262Z,70.43
2018-11-28T03:44:37.799Z,70.72
2018-11-28T03:45:37.825Z,71.19
2018-11-28T03:46:37.825Z,70.90
2018-11-28T03:47:37.852Z,71.19
2018-11-28T03:48:37.836Z,70.72
2018-11-28T03:49:37.851Z,71.44
2018-11-28T03:50:37.820Z,71.85
2018-11-28T03:51:37.821Z,71.47
2018-11-28T03:52:37.834Z,71.47
2018-11-28T03:53:37.827Z,71.38
2018-11-28T03:54:37.874Z,71.66
2018-11-28T03:55:37.871Z,71.72
2018-11-28T03:56:37.836Z,71.91
2018-11-28T03:57:37.846Z,72.29
2018-11-28T03:58:37.855Z,72.29
2018-11-28T03:59:37.875Z,72.48
2018-11-28T04:00:37.896Z,72.77
2018-11-28T04:01:37.870Z,72.48
2018-11-28T04:02:37.907Z,72.48
2018-11-28T04:03:37.854Z,72.48
2018-11-28T04:04:37.881Z,72.00
2018-11-28T04:05:37.861Z,72.19
2018-11-28T04:06:37.876Z,72.00
2018-11-28T04:07:37.861Z,72.00
2018-11-28T04:08:37.880Z,71.81
2018-11-28T04:09:37.889Z,72.29
2018-11-28T04:10:37.919Z,72.57
2018-11-28T04:11:37.876Z,72.29
2018-11-28T04:12:37.904Z,72.57
2018-11-28T04:13:37.870Z,72.48
2018-11-28T04:14:37.882Z,72.77
2018-11-28T04:15:37.912Z,72.67
2018-11-28T04:16:37.886Z,72.67
2018-11-28T04:17:37.906Z,73.14
2018-11-28T04:18:37.949Z,72.86
2018-11-28T04:19:37.896Z,72.86
2018-11-28T04:20:37.889Z,72.86
2018-11-28T04:21:37.919Z,73.24
2018-11-28T04:22:37.963Z,72.77
2018-11-28T04:23:37.928Z,72.86
2018-11-28T04:24:37.917Z,73.14
2018-11-28T04:25:37.911Z,73.71
2018-11-28T04:26:37.920Z,73.05
2018-11-28T04:27:37.911Z,73.24
2018-11-28T04:28:37.930Z,73.14
2018-11-28T04:29:37.992Z,73.14
2018-11-28T04:30:37.929Z,72.96
2018-11-28T04:31:37.930Z,73.43
2018-11-28T04:32:37.932Z,73.61
2018-11-28T04:33:37.979Z,73.71
2018-11-28T04:34:37.936Z,73.33
2018-11-28T04:35:37.984Z,73.61
2018-11-28T04:36:37.981Z,73.05
2018-11-28T04:37:37.942Z,73.24
2018-11-28T04:38:37.961Z,73.05
2018-11-28T04:39:37.986Z,73.52
2018-11-28T04:40:38.047Z,73.52
2018-11-28T04:41:38.009Z,73.61
2018-11-28T04:42:37.960Z,73.52
2018-11-28T04:43:37.964Z,73.05
2018-11-28T04:44:37.969Z,73.33
2018-11-28T04:45:37.954Z,73.52
2018-11-28T04:46:37.987Z,73.52
2018-11-28T04:47:37.960Z,73.90
2018-11-28T04:48:37.960Z,73.43
2018-11-28T04:49:37.962Z,73.71
2018-11-28T04:50:37.998Z,73.43
2018-11-28T04:51:38.007Z,73.71
2018-11-28T04:52:37.984Z,73.43
2018-11-28T04:53:37.985Z,73.52
2018-11-28T04:54:37.988Z,73.99
2018-11-28T04:55:38.016Z,73.71
2018-11-28T04:56:38.004Z,73.90
2018-11-28T04:57:37.993Z,73.52
2018-11-28T04:58:37.988Z,73.71
2018-11-28T04:59:37.991Z,74.56
2018-11-28T05:00:38.020Z,73.99
2018-11-28T05:01:37.995Z,73.99
2018-11-28T05:02:38.023Z,74.56
2018-11-28T05:03:38.008Z,74.56
2018-11-28T05:04:38.036Z,74.95
2018-11-28T05:05:38.029Z,74.85
2018-11-28T05:06:37.993Z,74.85
2018-11-28T05:07:38.017Z,74.85
2018-11-28T05:08:38.049Z,74.47
2018-11-28T05:09:38.049Z,75.13
2018-11-28T05:10:38.023Z,74.95
2018-11-28T05:11:38.052Z,74.81
2018-11-28T05:12:38.024Z,75.19
2018-11-28T05:13:38.037Z,75.09
2018-11-28T05:14:38.037Z,75.47
2018-11-28T05:15:38.041Z,75.38
2018-11-28T05:16:38.048Z,75.47
2018-11-28T05:17:38.067Z,75.28
2018-11-28T05:18:38.071Z,75.09
2018-11-28T05:19:38.035Z,75.38
2018-11-28T05:20:38.139Z,75.76
2018-11-28T05:21:38.060Z,76.14
2018-11-28T05:22:38.033Z,76.14
2018-11-28T05:23:38.051Z,75.95
2018-11-28T05:24:38.094Z,75.95
2018-11-28T05:25:38.064Z,76.04
2018-11-28T05:26:38.211Z,76.80
2018-11-28T05:27:38.090Z,76.70
2018-11-28T05:28:38.068Z,76.89
2018-11-28T05:29:38.042Z,76.89
2018-11-28T05:30:38.053Z,77.08
2018-11-28T05:31:38.090Z,77.37
2018-11-28T05:32:38.076Z,77.37
2018-11-28T05:33:38.083Z,76.80
2018-11-28T05:34:38.135Z,77.94
2018-11-28T05:35:38.077Z,77.37
2018-11-28T05:36:38.127Z,77.99
2018-11-28T05:37:38.091Z,77.84
2018-11-28T05:38:38.080Z,77.94
2018-11-28T05:39:38.087Z,78.03
2018-11-28T05:40:38.074Z,78.03
2018-11-28T05:41:38.082Z,78.37
2018-11-28T05:42:38.146Z,77.89
2018-11-28T05:43:38.084Z,78.18
2018-11-28T05:44:38.099Z,78.56
2018-11-28T05:45:38.089Z,78.46
2018-11-28T05:46:38.115Z,78.27
2018-11-28T05:47:38.097Z,78.41
2018-11-28T05:48:38.132Z,78.65
2018-11-28T05:49:38.098Z,78.27
2018-11-28T05:50:38.089Z,78.75
2018-11-28T05:51:38.118Z,78.37
2018-11-28T05:52:38.175Z,78.46
2018-11-28T05:53:38.238Z,78.37
2018-11-28T05:54:38.119Z,78.18
2018-11-28T05:55:38.100Z,77.65
2018-11-28T05:56:38.117Z,77.94
2018-11-28T05:57:38.107Z,77.94
2018-11-28T05:58:38.158Z,77.27
2018-11-28T05:59:38.160Z,77.27
2018-11-28T06:00:38.145Z,77.37
2018-11-28T06:01:38.162Z,77.46
2018-11-28T06:02:38.126Z,77.46
2018-11-28T06:03:38.126Z,77.27
2018-11-28T06:04:38.139Z,77.37
2018-11-28T06:05:38.165Z,77.27
2018-11-28T06:06:38.118Z,77.75
2018-11-28T06:07:38.159Z,77.94
2018-11-28T06:08:38.136Z,77.84
2018-11-28T06:09:38.135Z,78.03
2018-11-28T06:10:38.179Z,77.46
2018-11-28T06:11:38.139Z,77.75
2018-11-28T06:12:38.141Z,77.94
2018-11-28T06:13:38.137Z,77.94
2018-11-28T06:14:38.158Z,78.03
2018-11-28T06:15:38.194Z,77.75
2018-11-28T06:16:38.151Z,76.99
2018-11-28T06:17:38.153Z,77.08
2018-11-28T06:18:38.155Z,77.27
2018-11-28T06:19:38.159Z,77.37
2018-11-28T06:20:38.162Z,77.37
2018-11-28T06:21:38.220Z,77.27
2018-11-28T06:22:38.178Z,76.99
2018-11-28T06:23:38.167Z,77.27
2018-11-28T06:24:38.177Z,77.27
2018-11-28T06:25:38.174Z,77.27
2018-11-28T06:26:38.171Z,77.37
2018-11-28T06:27:38.212Z,77.08
2018-11-28T06:28:38.178Z,77.27
2018-11-28T06:29:38.170Z,77.18
2018-11-28T06:30:38.176Z,77.18
2018-11-28T06:31:38.275Z,77.18
2018-11-28T06:32:38.185Z,77.27
2018-11-28T06:33:38.264Z,77.18
2018-11-28T06:34:38.176Z,77.08
2018-11-28T06:35:38.209Z,77.08
2018-11-28T06:36:38.182Z,76.99
2018-11-28T06:37:38.208Z,76.70
2018-11-28T06:38:38.222Z,76.70
2018-11-28T06:39:38.209Z,76.89
2018-11-28T06:40:38.194Z,76.61
2018-11-28T06:41:38.203Z,76.70
2018-11-28T06:42:38.223Z,76.51
2018-11-28T06:43:38.222Z,76.70
2018-11-28T06:44:38.222Z,76.32
2018-11-28T06:45:38.223Z,76.80
2018-11-28T06:46:38.215Z,76.95
2018-11-28T06:47:38.201Z,76.89
2018-11-28T06:48:38.209Z,76.86
2018-11-28T06:49:38.264Z,77.14
2018-11-28T06:50:38.209Z,77.04
2018-11-28T06:51:38.221Z,77.08
2018-11-28T06:52:38.223Z,77.23
2018-11-28T06:53:38.238Z,77.46
2018-11-28T06:54:38.241Z,77.61
2018-11-28T06:55:38.365Z,77.42
2018-11-28T06:56:38.234Z,77.23
2018-11-28T06:57:38.229Z,77.99
2018-11-28T06:58:38.242Z,78.46
2018-11-28T06:59:38.510Z,78.56
2018-11-28T07:00:38.253Z,78.18
2018-11-28T07:01:38.242Z,77.99
2018-11-28T07:02:38.243Z,77.89
2018-11-28T07:03:38.250Z,77.61
2018-11-28T07:04:38.277Z,77.89
2018-11-28T07:05:38.328Z,77.42
2018-11-28T07:06:38.256Z,76.95
2018-11-28T07:07:38.252Z,76.80
2018-11-28T07:08:38.244Z,77.33
2018-11-28T07:09:38.245Z,77.23
2018-11-28T07:10:38.265Z,76.86
2018-11-28T07:11:38.290Z,76.89
2018-11-28T07:12:38.267Z,77.46
2018-11-28T07:13:38.274Z,77.46
2018-11-28T07:14:38.268Z,77.08
2018-11-28T07:15:38.298Z,77.08
2018-11-28T07:16:38.259Z,76.48
2018-11-28T07:17:38.282Z,76.61
2018-11-28T07:18:38.317Z,76.80
2018-11-28T07:19:38.265Z,76.99
2018-11-28T07:20:38.292Z,76.70
2018-11-28T07:21:38.330Z,76.70
2018-11-28T07:22:38.285Z,76.99
2018-11-28T07:23:38.290Z,77.27
2018-11-28T07:24:38.295Z,77.37
2018-11-28T07:25:38.309Z,77.18
2018-11-28T07:26:38.274Z,77.27
2018-11-28T07:27:38.310Z,77.18
2018-11-28T07:28:38.296Z,76.80
2018-11-28T07:29:38.309Z,76.51
2018-11-28T07:30:38.307Z,76.80
2018-11-28T07:31:38.342Z,76.23
2018-11-28T07:32:38.308Z,76.80
2018-11-28T07:33:38.319Z,76.51
2018-11-28T07:34:38.319Z,76.42
2018-11-28T07:35:38.314Z,76.23
2018-11-28T07:36:38.342Z,76.42
2018-11-28T07:37:38.386Z,76.32
2018-11-28T07:38:38.305Z,76.14
2018-11-28T07:39:38.374Z,76.32
2018-11-28T07:40:38.405Z,76.14
2018-11-28T07:41:38.344Z,75.76
2018-11-28T07:42:38.340Z,76.14
2018-11-28T07:43:38.308Z,76.04
2018-11-28T07:44:38.326Z,76.32
2018-11-28T07:45:38.464Z,76.14
2018-11-28T07:46:38.329Z,76.14
2018-11-28T07:47:38.333Z,76.04
2018-11-28T07:48:38.356Z,76.04
2018-11-28T07:49:38.405Z,76.32
2018-11-28T07:50:38.324Z,76.32
2018-11-28T07:51:38.344Z,76.32
2018-11-28T07:52:38.368Z,75.85
2018-11-28T07:53:38.379Z,75.85
2018-11-28T07:54:38.344Z,76.04
2018-11-28T07:55:38.381Z,76.14
2018-11-28T07:56:38.356Z,75.66
2018-11-28T07:57:38.372Z,75.57
2018-11-28T07:58:38.354Z,75.47
2018-11-28T07:59:38.363Z,75.38
2018-11-28T08:00:38.375Z,75.76
2018-11-28T08:01:38.399Z,75.76
2018-11-28T08:02:38.369Z,75.76
2018-11-28T08:03:38.364Z,75.95
2018-11-28T08:04:38.448Z,75.85
2018-11-28T08:05:38.370Z,75.95
2018-11-28T08:06:38.378Z,75.47
2018-11-28T08:07:38.358Z,74.81
2018-11-28T08:08:38.372Z,75.00
2018-11-28T08:09:38.420Z,75.00
2018-11-28T08:10:38.560Z,75.00
2018-11-28T08:11:38.405Z,74.90
2018-11-28T08:12:38.390Z,74.81
2018-11-28T08:13:38.380Z,75.28
2018-11-28T08:14:38.376Z,75.28
2018-11-28T08:15:38.389Z,75.00
2018-11-28T08:16:38.428Z,74.90
2018-11-28T08:17:38.406Z,74.90
2018-11-28T08:18:38.402Z,74.43
2018-11-28T08:19:38.387Z,74.71
2018-11-28T08:20:38.442Z,74.71
2018-11-28T08:21:38.397Z,73.96
2018-11-28T08:22:38.412Z,74.43
2018-11-28T08:23:38.413Z,73.58
2018-11-28T08:24:38.498Z,73.96
2018-11-28T08:25:38.397Z,73.86
2018-11-28T08:26:38.425Z,73.58
2018-11-28T08:27:38.530Z,73.77
2018-11-28T08:28:38.408Z,73.58
2018-11-28T08:29:38.420Z,73.39
2018-11-28T08:30:38.442Z,73.11
2018-11-28T08:31:38.436Z,72.82
2018-11-28T08:32:38.414Z,72.82
2018-11-28T08:33:38.468Z,73.20
2018-11-28T08:34:38.426Z,72.73
2018-11-28T08:35:38.441Z,72.86
2018-11-28T08:36:38.423Z,73.01
2018-11-28T08:37:38.448Z,72.57
2018-11-28T08:38:38.433Z,72.57
2018-11-28T08:39:38.492Z,72.57
2018-11-28T08:40:38.438Z,72.77
2018-11-28T08:41:38.491Z,73.05
2018-11-28T08:42:38.457Z,72.96
2018-11-28T08:43:38.456Z,72.48
2018-11-28T08:44:38.462Z,72.38
2018-11-28T08:45:38.471Z,72.29
2018-11-28T08:46:38.460Z,72.10
2018-11-28T08:47:38.463Z,72.29
2018-11-28T08:48:38.464Z,72.10
2018-11-28T08:49:38.481Z,71.44
2018-11-28T08:50:38.566Z,71.91
2018-11-28T08:51:38.490Z,71.81
2018-11-28T08:52:38.462Z,71.34
2018-11-28T08:53:38.536Z,71.53
2018-11-28T08:54:38.469Z,71.62
2018-11-28T08:55:38.478Z,71.34
2018-11-28T08:56:38.551Z,71.06
2018-11-28T08:57:38.482Z,71.62
2018-11-28T08:58:38.495Z,71.53
2018-11-28T08:59:38.487Z,70.97
2018-11-28T09:00:38.475Z,70.97
2018-11-28T09:01:38.502Z,70.49
2018-11-28T09:02:38.528Z,70.97
2018-11-28T09:03:38.492Z,70.68
2018-11-28T09:04:38.499Z,70.68
2018-11-28T09:05:38.522Z,70.68
2018-11-28T09:06:38.523Z,70.78
2018-11-28T09:07:38.788Z,70.97
2018-11-28T09:08:38.497Z,70.97
2018-11-28T09:09:38.518Z,71.81
2018-11-28T09:10:38.500Z,70.97
2018-11-28T09:11:38.504Z,70.97
2018-11-28T09:12:38.538Z,70.97
2018-11-28T09:13:38.572Z,70.87
2018-11-28T09:14:38.526Z,70.68
2018-11-28T09:15:38.526Z,70.68
2018-11-28T09:16:38.534Z,70.11
2018-11-28T09:17:38.690Z,70.20
2018-11-28T09:18:38.598Z,69.82
2018-11-28T09:19:38.565Z,69.64
2018-11-28T09:20:38.528Z,69.35
2018-11-28T09:21:38.548Z,69.64
2018-11-28T09:22:38.543Z,69.54
2018-11-28T09:23:38.780Z,69.64
2018-11-28T09:24:38.589Z,69.07
2018-11-28T09:25:38.534Z,68.98
2018-11-28T09:26:38.571Z,69.17
2018-11-28T09:27:38.564Z,69.07
2018-11-28T09:28:38.559Z,69.35
2018-11-28T09:29:38.568Z,69.17
2018-11-28T09:30:38.618Z,69.82
2018-11-28T09:31:38.561Z,69.64
2018-11-28T09:32:38.567Z,69.64
2018-11-28T09:33:38.620Z,69.64
2018-11-28T09:34:38.577Z,69.45
2018-11-28T09:35:38.586Z,69.64
2018-11-28T09:36:38.590Z,69.64
2018-11-28T09:37:38.567Z,69.38
2018-11-28T09:38:38.577Z,69.26
2018-11-28T09:39:38.586Z,69.07
2018-11-28T09:40:38.631Z,69.29
2018-11-28T09:41:38.631Z,68.88
2018-11-28T09:42:38.593Z,69.10
2018-11-28T09:43:38.594Z,69.20
2018-11-28T09:44:38.596Z,69.38
2018-11-28T09:45:38.624Z,69.10
2018-11-28T09:46:38.624Z,69.01
2018-11-28T09:47:38.646Z,68.63
2018-11-28T09:48:38.614Z,68.54
2018-11-28T09:49:38.620Z,69.01
2018-11-28T09:50:38.605Z,68.91
2018-11-28T09:51:38.612Z,68.35
2018-11-28T09:52:38.681Z,68.35
2018-11-28T09:53:38.607Z,68.15
2018-11-28T09:54:38.643Z,68.15
2018-11-28T09:55:38.626Z,68.06
2018-11-28T09:56:38.634Z,67.96
2018-11-28T09:57:38.636Z,68.35
2018-11-28T09:58:38.669Z,68.15
2018-11-28T09:59:38.634Z,68.25
2018-11-28T10:00:38.677Z,68.06
2018-11-28T10:01:38.688Z,68.15
2018-11-28T10:02:38.668Z,67.77
2018-11-28T10:03:38.661Z,67.40
2018-11-28T10:04:38.661Z,67.11
2018-11-28T10:05:38.673Z,67.21
2018-11-28T10:06:38.667Z,67.11
2018-11-28T10:07:38.722Z,67.02
2018-11-28T10:08:38.714Z,67.11
2018-11-28T10:09:38.684Z,66.93
2018-11-28T10:10:38.665Z,66.54
2018-11-28T10:11:38.662Z,66.45
2018-11-28T10:12:38.668Z,66.45
2018-11-28T10:13:38.723Z,66.45
2018-11-28T10:14:38.684Z,66.45
2018-11-28T10:15:38.701Z,65.97
2018-11-28T10:16:38.761Z,65.78
2018-11-28T10:17:38.701Z,65.97
2018-11-28T10:18:38.696Z,66.16
2018-11-28T10:19:38.737Z,65.78
2018-11-28T10:20:38.682Z,65.22
2018-11-28T10:21:38.701Z,65.41
2018-11-28T10:22:38.726Z,65.50
2018-11-28T10:23:38.943Z,65.22
2018-11-28T10:24:38.751Z,64.74
2018-11-28T10:25:38.984Z,65.50
2018-11-28T10:26:38.729Z,65.22
2018-11-28T10:27:38.728Z,65.12
2018-11-28T10:28:38.723Z,65.41
2018-11-28T10:29:38.720Z,64.17
2018-11-28T10:30:38.746Z,64.36
2018-11-28T10:31:38.722Z,64.55
2018-11-28T10:32:38.738Z,63.51
2018-11-28T10:33:38.745Z,63.51
2018-11-28T10:34:38.741Z,63.60
2018-11-28T10:35:38.769Z,63.60
2018-11-28T10:36:38.779Z,63.32
2018-11-28T10:37:38.735Z,63.26
2018-11-28T10:38:38.743Z,62.75
2018-11-28T10:39:38.743Z,62.94
2018-11-28T10:40:38.781Z,63.23
2018-11-28T10:41:38.764Z,63.13
2018-11-28T10:42:38.801Z,63.23
2018-11-28T10:43:38.785Z,62.94
2018-11-28T10:44:38.774Z,62.69
2018-11-28T10:45:38.801Z,62.50
2018-11-28T10:46:38.812Z,62.59
2018-11-28T10:47:38.791Z,62.88
2018-11-28T10:48:38.775Z,63.07
2018-11-28T10:49:38.797Z,63.51
2018-11-28T10:50:38.825Z,63.54
2018-11-28T10:51:38.773Z,63.51
2018-11-28T10:52:38.825Z,62.69
2018-11-28T10:53:38.795Z,62.50
2018-11-28T10:54:38.804Z,62.59
2018-11-28T10:55:38.802Z,62.50
2018-11-28T10:56:38.812Z,62.69
2018-11-28T10:57:38.823Z,62.78
2018-11-28T10:58:38.825Z,63.17
2018-11-28T10:59:38.818Z,62.69
2018-11-28T11:00:38.808Z,62.40
2018-11-28T11:01:38.880Z,62.50
2018-11-28T11:02:38.874Z,61.93
2018-11-28T11:03:38.851Z,61.74
2018-11-28T11:04:38.858Z,61.65
2018-11-28T11:05:38.822Z,61.08
2018-11-28T11:06:39.740Z,60.70
2018-11-28T11:07:38.847Z,61.08
2018-11-28T11:08:38.858Z,61.36
2018-11-28T11:09:38.838Z,61.65
2018-11-28T11:10:38.840Z,61.83
2018-11-28T11:11:38.864Z,61.36
2018-11-28T11:12:38.849Z,61.74
2018-11-28T11:13:38.867Z,60.98
2018-11-28T11:14:38.846Z,60.89
2018-11-28T11:15:38.905Z,61.17
2018-11-28T11:16:38.858Z,61.27
2018-11-28T11:17:38.861Z,61.27
2018-11-28T11:18:38.915Z,61.08
2018-11-28T11:19:38.868Z,60.89
2018-11-28T11:20:38.874Z,61.46
2018-11-28T11:21:38.861Z,60.89
2018-11-28T11:22:38.865Z,60.79
2018-11-28T11:23:38.863Z,60.79
2018-11-28T11:24:38.949Z,61.93
2018-11-28T11:25:38.909Z,61.93
2018-11-28T11:26:38.910Z,62.88
2018-11-28T11:27:38.929Z,61.17
2018-11-28T11:28:38.884Z,61.08
2018-11-28T11:29:38.982Z,60.13
2018-11-28T11:30:38.914Z,60.98
2018-11-28T11:31:38.924Z,61.36
2018-11-28T11:32:38.917Z,61.27
2018-11-28T11:33:38.929Z,61.65
2018-11-28T11:34:38.932Z,61.46
2018-11-28T11:35:38.932Z,60.50
2018-11-28T11:36:38.918Z,60.31
2018-11-28T11:37:38.935Z,59.84
2018-11-28T11:38:38.925Z,60.50
2018-11-28T11:39:38.936Z,61.17
2018-11-28T11:40:39.034Z,61.17
2018-11-28T11:41:38.934Z,60.60
2018-11-28T11:42:38.949Z,60.41
2018-11-28T11:43:38.925Z,60.03
2018-11-28T11:44:38.944Z,59.37
2018-11-28T11:45:39.649Z,59.94
2018-11-28T11:46:38.966Z,59.18
2018-11-28T11:47:38.957Z,59.37
2018-11-28T11:48:38.947Z,58.99
2018-11-28T11:49:38.987Z,59.94
2018-11-28T11:50:38.973Z,59.37
2018-11-28T11:51:39.008Z,59.94
2018-11-28T11:52:38.958Z,59.46
2018-11-28T11:53:38.974Z,58.99
2018-11-28T11:54:38.966Z,59.37
2018-11-28T11:55:39.018Z,59.18
2018-11-28T11:56:38.967Z,58.70
2018-11-28T11:57:39.025Z,59.37
2018-11-28T11:58:38.994Z,60.31
2018-11-28T11:59:38.989Z,60.03
2018-11-28T12:00:38.998Z,59.18
2018-11-28T12:01:38.986Z,59.37
2018-11-28T12:02:39.042Z,58.80
2018-11-28T12:03:39.050Z,58.99
2018-11-28T12:04:39.003Z,59.37
2018-11-28T12:05:39.018Z,59.08
2018-11-28T12:06:39.099Z,58.89
2018-11-28T12:07:39.019Z,59.37
2018-11-28T12:08:39.103Z,60.13
2018-11-28T12:09:39.019Z,59.27
2018-11-28T12:10:39.017Z,60.31
2018-11-28T12:11:39.067Z,59.56
2018-11-28T12:12:39.051Z,60.31
2018-11-28T12:13:39.103Z,59.37
2018-11-28T12:14:39.040Z,59.18
2018-11-28T12:15:39.038Z,59.08
2018-11-28T12:16:39.095Z,58.23
2018-11-28T12:17:39.049Z,58.70
2018-11-28T12:18:39.072Z,59.56
2018-11-28T12:19:39.086Z,59.94
2018-11-28T12:20:39.060Z,59.27
2018-11-28T12:21:39.080Z,59.18
2018-11-28T12:22:39.064Z,58.70
2018-11-28T12:23:39.092Z,58.14
2018-11-28T12:24:39.142Z,58.14
2018-11-28T12:25:39.094Z,58.23
2018-11-28T12:26:39.102Z,58.04
2018-11-28T12:27:39.076Z,58.23
2018-11-28T12:28:39.111Z,58.14
2018-11-28T12:29:39.083Z,58.99
2018-11-28T12:30:39.125Z,58.17
2018-11-28T12:31:39.078Z,58.14
2018-11-28T12:32:39.091Z,57.79
2018-11-28T12:33:39.100Z,57.69
2018-11-28T12:34:39.118Z,58.07
2018-11-28T12:35:39.177Z,57.98
2018-11-28T12:36:39.128Z,59.11
2018-11-28T12:37:39.102Z,59.40
2018-11-28T12:38:39.126Z,58.99
2018-11-28T12:39:39.169Z,58.89
2018-11-28T12:40:39.124Z,59.68
2018-11-28T12:41:39.157Z,59.37
2018-11-28T12:42:39.141Z,59.88
2018-11-28T12:43:39.129Z,58.83
2018-11-28T12:44:39.141Z,59.88
2018-11-28T12:45:39.136Z,59.94
2018-11-28T12:46:39.168Z,59.08
2018-11-28T12:47:39.177Z,58.99
2018-11-28T12:48:39.147Z,59.08
2018-11-28T12:49:39.142Z,57.98
2018-11-28T12:50:39.155Z,58.26
2018-11-28T12:51:39.167Z,57.88
2018-11-28T12:52:39.166Z,57.21